Time;durP1;ratioP1;P1;durP2;ratioP2;P2;SDS_P1;SDS_P2;PMS_P1;PMS_P2;Temp;Humidity;BMP_temperature;BMP_pressure;BME280_temperature;BME280_humidity;BME280_pressure;Samples;Min_cycle;Max_cycle;Signal;HPM_P1;HPM_P2
2022/08/23 00:00:18;;;;;;;16.63;11.82;;;17.60;99.90;;;;;;5085071;28;20554;-67
2022/08/23 00:02:44;;;;;;;12.57;10.93;;;17.60;99.90;;;;;;5102955;28;20040;-67
2022/08/23 00:05:10;;;;;;;17.15;13.88;;;17.50;99.90;;;;;;5102780;28;20043;-67
2022/08/23 00:07:42;;;;;;;16.13;11.48;;;17.50;99.90;;;;;;5068974;28;20088;-67
2022/08/23 00:10:11;;;;;;;17.10;10.80;;;17.50;99.90;;;;;;5104714;28;20147;-67
2022/08/23 00:12:37;;;;;;;18.67;13.85;;;17.50;99.90;;;;;;5106198;27;20044;-68
2022/08/23 00:15:04;;;;;;;19.10;12.80;;;17.40;99.90;;;;;;5104361;28;20043;-67
2022/08/23 00:17:30;;;;;;;15.25;11.85;;;17.40;99.90;;;;;;5085593;28;20097;-68
2022/08/23 00:19:57;;;;;;;14.13;11.70;;;17.40;99.90;;;;;;5100924;28;20096;-67
2022/08/23 00:22:23;;;;;;;15.98;10.13;;;17.40;99.90;;;;;;5101685;28;20035;-68
2022/08/23 00:24:49;;;;;;;24.88;11.52;;;17.40;99.90;;;;;;5083831;28;20396;-68
2022/08/23 00:27:16;;;;;;;16.75;11.40;;;17.40;99.90;;;;;;5102438;28;20418;-68
2022/08/23 00:29:48;;;;;;;16.67;13.45;;;17.30;99.90;;;;;;5085625;28;20044;-68
2022/08/23 00:32:19;;;;;;;13.80;12.35;;;17.30;99.90;;;;;;5084089;27;20067;-68
2022/08/23 00:34:46;;;;;;;15.48;12.25;;;17.30;99.90;;;;;;5103853;27;20058;-68
2022/08/23 00:37:12;;;;;;;14.20;11.65;;;17.20;99.90;;;;;;5104190;27;20059;-68
2022/08/23 00:39:39;;;;;;;20.17;12.15;;;17.20;99.90;;;;;;5105640;27;20051;-68
2022/08/23 00:47:38;;;;;;;17.73;11.95;;;17.20;99.90;;;;;;5086043;28;20059;-68
2022/08/23 00:47:53;;;;;;;18.15;12.88;;;17.10;99.90;;;;;;5011582;28;20068;-68
2022/08/23 00:50:42;;;;;;;15.82;12.77;;;17.10;99.90;;;;;;5086116;28;20071;-68
2022/08/23 00:53:31;;;;;;;20.45;14.30;;;17.10;99.90;;;;;;5104077;28;20126;-68
2022/08/23 00:56:02;;;;;;;15.55;11.82;;;17.10;99.90;;;;;;5064179;28;20054;-68
2022/08/23 00:58:29;;;;;;;23.45;13.63;;;17.00;99.90;;;;;;5101250;27;20079;-68
2022/08/23 01:00:57;;;;;;;17.88;13.50;;;17.00;99.90;;;;;;5083850;28;20043;-68
2022/08/23 01:03:26;;;;;;;23.17;14.95;;;16.90;99.90;;;;;;5082866;28;20047;-68
2022/08/23 01:06:04;;;;;;;12.57;11.38;;;16.90;99.90;;;;;;5084417;28;20970;-67
2022/08/23 01:08:31;;;;;;;;;;;16.80;99.90;;;;;;5102953;28;20129;-68
2022/08/23 01:11:17;;;;;;;9.47;8.60;;;16.70;99.90;;;;;;5100949;28;19923;-68
2022/08/23 01:13:53;;;;;;;10.38;5.55;;;16.60;99.90;;;;;;5102758;28;20505;-68
2022/08/23 01:16:32;;;;;;;9.23;6.85;;;16.50;99.90;;;;;;5083680;28;20811;-67
2022/08/23 01:19:00;;;;;;;18.23;10.60;;;16.30;99.90;;;;;;5103163;28;20086;-67
2022/08/23 01:21:31;;;;;;;;;;;16.30;99.90;;;;;;5082388;28;20052;-68
2022/08/23 01:24:01;;;;;;;13.73;10.45;;;16.10;99.90;;;;;;5104344;28;19983;-68
2022/08/23 01:26:30;;;;;;;9.88;8.75;;;16.10;99.90;;;;;;5102914;28;20497;-67
2022/08/23 01:28:56;;;;;;;9.75;8.85;;;16.10;99.90;;;;;;5081291;28;20541;-68
2022/08/23 01:31:24;;;;;;;10.93;9.77;;;16.20;99.90;;;;;;5082393;28;20054;-68
2022/08/23 01:33:55;;;;;;;9.07;8.17;;;16.20;99.90;;;;;;5103652;28;20050;-68
2022/08/23 01:36:20;;;;;;;13.85;7.60;;;16.10;99.90;;;;;;5083422;28;20518;-68
2022/08/23 01:38:47;;;;;;;10.07;8.65;;;16.10;99.90;;;;;;5080159;28;20047;-68
2022/08/23 01:41:13;;;;;;;13.20;9.65;;;16.20;99.90;;;;;;5103389;28;20423;-68
2022/08/23 01:43:39;;;;;;;10.52;9.43;;;16.20;99.90;;;;;;5083549;28;20052;-68
2022/08/23 01:46:19;;;;;;;12.35;9.82;;;16.20;99.90;;;;;;5083821;28;20147;-67
2022/08/23 01:48:47;;;;;;;11.38;10.00;;;16.30;99.90;;;;;;5084816;28;20467;-67
2022/08/23 01:51:15;;;;;;;12.10;10.43;;;16.20;99.90;;;;;;5084329;28;20065;-67
2022/08/23 01:53:41;;;;;;;12.38;9.43;;;16.20;99.90;;;;;;5083712;28;20039;-68
2022/08/23 01:56:08;;;;;;;13.45;10.55;;;16.20;99.90;;;;;;5102039;28;20066;-68
2022/08/23 01:58:35;;;;;;;11.65;10.45;;;16.20;99.90;;;;;;5065012;28;20051;-67
2022/08/23 02:01:03;;;;;;;14.17;10.60;;;16.20;99.90;;;;;;5082730;28;20058;-68
2022/08/23 02:03:30;;;;;;;13.45;11.57;;;16.20;99.90;;;;;;5102349;28;20050;-68
2022/08/23 02:05:56;;;;;;;12.77;11.48;;;16.10;99.90;;;;;;5083333;28;20071;-68
2022/08/23 02:11:21;;;;;;;16.40;14.55;;;16.10;99.90;;;;;;5102558;28;20460;-68
2022/08/23 02:13:47;;;;;;;15.90;13.95;;;16.10;99.90;;;;;;5102676;28;20064;-68
2022/08/23 02:16:20;;;;;;;17.42;15.13;;;16.10;99.90;;;;;;5099781;28;20119;-68
2022/08/23 02:18:46;;;;;;;17.65;15.80;;;16.10;99.90;;;;;;5083729;28;20054;-68
2022/08/23 02:21:12;;;;;;;16.58;14.52;;;16.10;99.90;;;;;;5101856;28;20032;-68
2022/08/23 02:23:39;;;;;;;23.98;15.15;;;16.10;99.90;;;;;;5087050;28;20484;-68
2022/08/23 02:26:05;;;;;;;17.08;13.88;;;16.00;99.90;;;;;;5106037;27;20094;-68
2022/08/23 02:28:31;;;;;;;15.70;14.02;;;16.00;99.90;;;;;;5105869;27;20088;-68
2022/08/23 02:30:57;;;;;;;20.08;18.00;;;16.00;99.90;;;;;;5085888;28;20400;-68
2022/08/23 02:33:22;;;;;;;17.05;15.25;;;16.00;99.90;;;;;;5103126;27;20082;-68
2022/08/23 02:35:48;;;;;;;18.52;15.20;;;15.90;99.90;;;;;;5087877;28;20065;-68
2022/08/23 02:38:15;;;;;;;26.38;17.13;;;15.80;99.90;;;;;;5083169;28;20050;-68
2022/08/23 02:40:41;;;;;;;24.70;14.98;;;15.70;99.90;;;;;;5106502;28;20043;-68
2022/08/23 02:43:08;;;;;;;21.92;15.93;;;15.60;99.90;;;;;;5106628;27;20088;-68
2022/08/23 02:45:35;;;;;;;18.10;16.20;;;15.50;99.90;;;;;;5088543;28;20050;-68
2022/08/23 02:48:01;;;;;;;20.63;15.27;;;15.50;99.90;;;;;;5106669;27;20069;-68
2022/08/23 02:50:26;;;;;;;22.27;16.55;;;15.50;99.90;;;;;;5083564;28;20416;-68
2022/08/23 02:52:53;;;;;;;21.08;16.75;;;15.50;99.90;;;;;;5088133;28;20496;-67
2022/08/23 02:55:19;;;;;;;20.25;17.48;;;15.60;99.90;;;;;;5105838;27;20047;-68
2022/08/23 02:57:46;;;;;;;22.70;18.83;;;15.50;99.90;;;;;;5102606;28;20075;-67
2022/08/23 03:00:13;;;;;;;21.98;18.30;;;15.60;99.90;;;;;;5103740;28;20956;-67
2022/08/23 03:02:40;;;;;;;26.83;17.63;;;15.50;99.90;;;;;;5085983;28;20052;-67
2022/08/23 03:05:07;;;;;;;18.85;16.30;;;15.50;99.90;;;;;;5087596;28;20562;-68
2022/08/23 03:07:33;;;;;;;14.57;13.10;;;15.40;99.90;;;;;;5087663;28;20083;-68
2022/08/23 03:09:59;;;;;;;14.93;11.57;;;15.30;99.90;;;;;;5082245;28;20450;-68
2022/08/23 03:12:28;;;;;;;12.35;11.25;;;15.20;99.90;;;;;;5102465;28;20502;-68
2022/08/23 03:14:55;;;;;;;11.55;10.32;;;15.20;99.90;;;;;;5104233;28;20100;-68
2022/08/23 03:17:20;;;;;;;10.88;9.93;;;15.30;99.90;;;;;;5105064;28;20047;-68
2022/08/23 03:19:47;;;;;;;10.65;9.68;;;15.30;99.90;;;;;;5104530;28;20054;-68
2022/08/23 03:22:13;;;;;;;12.02;10.82;;;15.30;99.90;;;;;;5106302;28;20477;-68
2022/08/23 03:24:38;;;;;;;9.85;9.05;;;15.30;99.90;;;;;;5105888;28;20044;-69
2022/08/23 03:27:05;;;;;;;13.23;11.93;;;15.30;99.90;;;;;;5104305;28;20863;-69
2022/08/23 03:29:31;;;;;;;14.35;12.88;;;15.30;99.90;;;;;;5085123;28;20056;-69
2022/08/23 03:31:58;;;;;;;12.05;11.05;;;15.20;99.90;;;;;;5105692;27;20040;-69
2022/08/23 03:34:24;;;;;;;10.70;9.75;;;15.20;99.90;;;;;;5102600;28;20044;-69
2022/08/23 03:37:08;;;;;;;13.40;12.23;;;15.20;99.90;;;;;;5103444;28;20035;-70
2022/08/23 03:39:34;;;;;;;11.38;10.38;;;15.10;99.90;;;;;;5104285;28;20039;-70
2022/08/23 03:42:00;;;;;;;12.93;11.73;;;15.00;99.90;;;;;;5106600;27;20040;-71
2022/08/23 03:44:25;;;;;;;12.70;11.60;;;15.00;99.90;;;;;;5082596;28;20075;-70
2022/08/23 03:46:51;;;;;;;13.02;11.93;;;15.00;99.90;;;;;;5084257;28;20108;-69
2022/08/23 03:49:17;;;;;;;12.82;11.63;;;15.00;99.90;;;;;;5104487;28;20059;-70
2022/08/23 03:51:42;;;;;;;12.93;11.55;;;14.90;99.90;;;;;;5084897;28;20040;-69
2022/08/23 03:54:08;;;;;;;11.25;10.20;;;14.90;99.90;;;;;;5089005;28;20607;-70
2022/08/23 03:56:37;;;;;;;15.32;13.82;;;14.90;99.90;;;;;;5086810;28;20031;-70
2022/08/23 03:59:10;;;;;;;20.52;15.38;;;14.90;99.90;;;;;;5104615;28;20166;-70
2022/08/23 04:01:36;;;;;;;24.33;16.38;;;14.90;99.90;;;;;;5087087;28;20043;-70
2022/08/23 04:04:02;;;;;;;15.95;14.02;;;14.80;99.90;;;;;;5087203;28;20393;-69
2022/08/23 04:06:28;;;;;;;18.08;13.88;;;14.80;99.90;;;;;;5085677;28;20068;-70
2022/08/23 04:08:54;;;;;;;13.23;11.70;;;14.80;99.90;;;;;;5083934;28;20043;-70
2022/08/23 04:11:21;;;;;;;13.93;12.45;;;14.80;99.90;;;;;;5082157;28;20462;-70
2022/08/23 04:13:47;;;;;;;13.27;12.00;;;14.80;99.90;;;;;;5103160;28;20606;-70
2022/08/23 04:16:13;;;;;;;16.25;14.68;;;14.80;99.90;;;;;;5104496;28;20163;-69
2022/08/23 04:18:39;;;;;;;16.77;14.98;;;14.80;99.90;;;;;;5086876;28;20050;-70
2022/08/23 04:21:09;;;;;;;19.73;13.63;;;14.70;99.90;;;;;;5104372;28;21970;-69
2022/08/23 04:23:36;;;;;;;13.30;11.98;;;14.70;99.90;;;;;;5105009;27;20057;-69
2022/08/23 04:26:04;;;;;;;13.10;11.65;;;14.70;99.90;;;;;;5104132;28;20040;-69
2022/08/23 04:28:30;;;;;;;12.85;11.65;;;14.60;99.90;;;;;;5105263;27;20660;-70
2022/08/23 04:30:59;;;;;;;15.30;13.70;;;14.60;99.90;;;;;;5084137;28;20054;-69
2022/08/23 04:33:25;;;;;;;14.93;13.60;;;14.60;99.90;;;;;;5106734;27;20052;-70
2022/08/23 04:35:51;;;;;;;13.95;12.73;;;14.60;99.90;;;;;;5103547;28;20097;-70
2022/08/23 04:38:18;;;;;;;15.32;13.85;;;14.60;99.90;;;;;;5106110;27;20051;-70
2022/08/23 04:43:28;;;;;;;12.80;11.68;;;14.60;99.90;;;;;;5085383;28;20048;-70
2022/08/23 04:45:54;;;;;;;13.10;11.90;;;14.70;99.90;;;;;;5085398;28;20445;-70
2022/08/23 04:48:21;;;;;;;14.15;12.75;;;14.70;99.90;;;;;;5086526;28;20112;-70
2022/08/23 04:50:46;;;;;;;13.15;12.02;;;14.70;99.90;;;;;;5102519;28;20054;-70
2022/08/23 04:53:12;;;;;;;14.85;13.45;;;14.70;99.90;;;;;;5104513;27;20048;-70
2022/08/23 04:55:39;;;;;;;12.93;11.70;;;14.80;99.90;;;;;;5103698;28;20028;-70
2022/08/23 04:58:05;;;;;;;13.32;12.02;;;14.70;99.90;;;;;;5096975;28;20051;-70
2022/08/23 05:00:31;;;;;;;14.05;12.65;;;14.70;99.90;;;;;;5100559;28;20492;-70
2022/08/23 05:02:56;;;;;;;16.55;14.23;;;14.80;99.90;;;;;;5099513;28;20044;-70
2022/08/23 05:05:22;;;;;;;11.52;10.63;;;14.80;99.90;;;;;;5104754;28;20047;-70
2022/08/23 05:07:48;;;;;;;11.40;10.55;;;14.90;99.90;;;;;;5104553;27;20044;-70
2022/08/23 05:10:15;;;;;;;10.90;10.13;;;15.00;99.90;;;;;;5104513;27;20027;-70
2022/08/23 05:12:41;;;;;;;11.23;10.43;;;15.10;99.90;;;;;;5103643;28;20088;-70
2022/08/23 05:15:08;;;;;;;10.70;9.90;;;15.10;99.90;;;;;;5103758;28;20051;-69
2022/08/23 05:17:34;;;;;;;11.02;10.02;;;15.20;99.90;;;;;;5104870;28;20043;-70
2022/08/23 05:20:01;;;;;;;10.55;9.70;;;15.20;99.90;;;;;;5104325;28;20044;-70
2022/08/23 05:22:27;;;;;;;9.88;9.15;;;15.30;99.90;;;;;;5103355;28;20047;-70
2022/08/23 05:24:53;;;;;;;10.70;9.63;;;15.40;99.90;;;;;;5104848;27;20061;-70
2022/08/23 05:27:18;;;;;;;10.82;9.95;;;15.50;99.90;;;;;;5088310;28;20043;-70
2022/08/23 05:29:46;;;;;;;10.05;9.25;;;15.60;99.90;;;;;;5084868;28;20048;-70
2022/08/23 05:32:11;;;;;;;11.80;9.93;;;15.60;99.90;;;;;;5105308;28;20154;-70
2022/08/23 05:34:37;;;;;;;12.23;11.05;;;15.70;99.90;;;;;;5104008;28;20119;-70
2022/08/23 05:37:03;;;;;;;10.48;9.48;;;15.70;99.90;;;;;;5104177;28;20039;-70
2022/08/23 05:39:28;;;;;;;9.60;8.73;;;15.70;99.90;;;;;;5104103;28;20169;-70
2022/08/23 05:41:54;;;;;;;8.65;8.05;;;15.80;99.90;;;;;;5084293;28;20043;-70
2022/08/23 05:44:19;;;;;;;9.63;8.70;;;15.80;99.90;;;;;;5103920;28;20038;-70
2022/08/23 05:46:45;;;;;;;9.20;8.40;;;15.90;99.90;;;;;;5102717;28;20036;-70
2022/08/23 05:49:11;;;;;;;8.73;7.93;;;15.90;99.90;;;;;;5107418;28;20158;-70
2022/08/23 05:51:36;;;;;;;11.93;10.90;;;15.90;99.90;;;;;;5106509;28;20039;-70
2022/08/23 05:54:05;;;;;;;16.15;14.45;;;15.90;99.90;;;;;;5087463;28;20082;-70
2022/08/23 05:56:33;;;;;;;14.95;13.38;;;15.90;99.90;;;;;;5082211;28;20083;-69
2022/08/23 05:59:04;;;;;;;17.63;16.15;;;15.90;99.90;;;;;;5109784;28;20052;-69
2022/08/23 06:01:30;;;;;;;18.20;16.50;;;15.90;99.90;;;;;;5091346;28;20047;-70
2022/08/23 06:03:59;;;;;;;21.25;19.17;;;15.90;99.90;;;;;;5086663;28;20488;-70
2022/08/23 06:06:25;;;;;;;20.52;18.35;;;15.90;99.90;;;;;;5092342;28;20883;-70
2022/08/23 06:08:51;;;;;;;18.17;16.58;;;16.00;99.90;;;;;;5093740;28;20835;-71
2022/08/23 06:11:25;;;;;;;23.05;20.02;;;16.00;99.90;;;;;;5092961;28;20042;-70
2022/08/23 06:13:53;;;;;;;23.00;20.52;;;16.10;99.90;;;;;;5091699;28;20047;-71
2022/08/23 06:16:22;;;;;;;19.80;17.90;;;16.20;99.90;;;;;;5093946;28;20625;-71
2022/08/23 06:18:49;;;;;;;20.85;18.77;;;16.20;99.90;;;;;;5092368;28;20102;-71
2022/08/23 06:21:16;;;;;;;25.90;23.33;;;16.20;99.90;;;;;;5091532;28;20058;-71
2022/08/23 06:23:42;;;;;;;33.65;29.63;;;16.30;99.90;;;;;;5089975;28;20143;-71
2022/08/23 06:26:13;;;;;;;32.53;29.50;;;16.40;99.90;;;;;;5085462;28;20092;-71
2022/08/23 06:28:40;;;;;;;32.60;29.42;;;16.50;99.90;;;;;;5084455;28;20048;-70
2022/08/23 06:31:06;;;;;;;30.58;27.80;;;16.60;99.90;;;;;;5084522;27;20051;-70
2022/08/23 06:33:32;;;;;;;33.50;27.60;;;16.80;99.90;;;;;;5089494;28;20043;-71
2022/08/23 06:36:07;;;;;;;30.75;26.20;;;16.80;99.90;;;;;;5087438;27;20055;-71
2022/08/23 06:38:33;;;;;;;39.03;27.63;;;17.00;99.90;;;;;;5085057;28;20043;-71
2022/08/23 06:41:05;;;;;;;33.05;29.75;;;17.00;99.90;;;;;;5087553;28;20052;-71
2022/08/23 06:43:31;;;;;;;37.05;30.38;;;17.20;99.90;;;;;;5091923;28;20047;-71
2022/08/23 06:46:16;;;;;;;35.78;32.03;;;17.20;99.90;;;;;;5091015;28;20086;-71
2022/08/23 06:48:43;;;;;;;33.22;29.70;;;17.30;99.90;;;;;;5098794;28;20043;-70
2022/08/23 06:51:24;;;;;;;32.30;29.08;;;17.40;99.90;;;;;;5105064;28;20044;-71
2022/08/23 06:53:55;;;;;;;31.15;28.30;;;17.50;99.90;;;;;;5101949;28;20123;-71
2022/08/23 06:56:25;;;;;;;45.53;27.95;;;17.60;99.90;;;;;;5089710;27;20051;-71
2022/08/23 06:58:52;;;;;;;32.63;29.20;;;17.90;99.90;;;;;;5107996;27;20051;-71
2022/08/23 07:01:31;;;;;;;31.10;28.10;;;18.10;99.90;;;;;;5091842;28;20047;-71
2022/08/23 07:03:58;;;;;;;27.95;25.23;;;18.30;99.90;;;;;;5089364;28;20105;-71
2022/08/23 07:06:26;;;;;;;28.73;26.02;;;18.60;99.90;;;;;;5082706;28;20044;-70
2022/08/23 07:08:52;;;;;;;28.65;26.05;;;18.90;99.90;;;;;;5089757;27;20407;-71
2022/08/23 07:11:19;;;;;;;26.10;23.70;;;19.30;99.90;;;;;;5086562;28;20089;-70
2022/08/23 07:13:45;;;;;;;25.10;23.13;;;19.70;99.90;;;;;;5104677;27;20523;-70
2022/08/23 07:16:11;;;;;;;23.27;21.00;;;20.00;99.90;;;;;;5104781;28;20039;-67
2022/08/23 07:18:38;;;;;;;26.40;22.70;;;20.30;99.90;;;;;;5082867;28;20032;-70
2022/08/23 07:21:04;;;;;;;26.15;23.65;;;20.60;99.90;;;;;;5086373;28;20630;-69
2022/08/23 07:23:32;;;;;;;24.80;22.73;;;20.90;99.90;;;;;;5085835;27;20126;-69
2022/08/23 07:25:59;;;;;;;32.85;22.95;;;21.10;99.90;;;;;;5087204;27;20047;-71
2022/08/23 07:28:26;;;;;;;22.98;20.77;;;21.30;99.90;;;;;;5102630;28;20161;-69
2022/08/23 07:30:52;;;;;;;23.05;21.05;;;21.50;99.90;;;;;;5105354;28;20776;-67
2022/08/23 07:33:18;;;;;;;23.63;21.48;;;21.70;99.90;;;;;;5104772;27;20052;-68
2022/08/23 07:35:49;;;;;;;25.90;23.63;;;22.00;99.90;;;;;;5104676;28;20047;-69
2022/08/23 07:38:16;;;;;;;24.33;19.88;;;22.30;99.90;;;;;;5104493;28;20086;-69
2022/08/23 07:40:42;;;;;;;24.10;21.40;;;22.60;99.90;;;;;;5087149;28;20043;-69
2022/08/23 07:43:08;;;;;;;21.80;19.52;;;22.80;99.90;;;;;;5109756;28;20055;-69
2022/08/23 07:45:36;;;;;;;22.92;20.83;;;23.00;99.90;;;;;;5105916;28;20404;-68
2022/08/23 07:48:01;;;;;;;;;;;23.20;99.90;;;;;;5109699;28;20059;-69
2022/08/23 07:50:28;;;;;;;23.30;16.67;;;23.30;99.90;;;;;;5086092;28;19927;-69
2022/08/23 07:52:54;;;;;;;19.85;17.92;;;23.50;99.90;;;;;;5095492;28;20116;-69
2022/08/23 07:55:20;;;;;;;19.67;17.90;;;23.70;99.90;;;;;;5073809;28;20122;-69
2022/08/23 07:57:46;;;;;;;19.52;17.63;;;23.90;99.90;;;;;;5089334;28;20100;-69
2022/08/23 08:00:13;;;;;;;20.08;18.27;;;24.10;99.90;;;;;;5109330;28;20064;-69
2022/08/23 08:02:39;;;;;;;20.83;18.63;;;24.30;99.90;;;;;;5109500;28;20060;-69
2022/08/23 08:05:05;;;;;;;17.92;16.30;;;24.50;99.90;;;;;;5108888;28;20747;-69
2022/08/23 08:07:31;;;;;;;17.63;16.08;;;24.50;99.90;;;;;;5108411;28;20044;-69
2022/08/23 08:09:56;;;;;;;21.05;19.23;;;24.80;99.90;;;;;;5090877;28;20039;-69
2022/08/23 08:12:22;;;;;;;16.85;14.15;;;25.00;99.90;;;;;;5109222;28;20389;-69
2022/08/23 08:14:48;;;;;;;16.40;14.93;;;25.10;99.90;;;;;;5108692;28;20484;-69
2022/08/23 08:17:15;;;;;;;20.27;16.17;;;25.20;99.90;;;;;;5109059;28;20058;-69
2022/08/23 08:19:41;;;;;;;16.60;14.93;;;25.40;99.90;;;;;;5107937;28;20043;-70
2022/08/23 08:22:06;;;;;;;16.50;14.95;;;25.60;99.90;;;;;;5090531;28;20511;-69
2022/08/23 08:24:32;;;;;;;16.77;15.23;;;25.60;99.90;;;;;;5108928;28;20390;-69
2022/08/23 08:26:58;;;;;;;16.50;15.02;;;25.60;99.90;;;;;;5109135;28;20077;-70
2022/08/23 08:29:25;;;;;;;18.80;17.10;;;25.80;99.90;;;;;;5073406;28;20046;-70
2022/08/23 08:31:51;;;;;;;20.63;17.95;;;25.70;99.90;;;;;;5091043;28;20074;-70
2022/08/23 08:34:17;;;;;;;17.42;14.50;;;25.90;99.90;;;;;;5107956;28;20484;-70
2022/08/23 08:36:48;;;;;;;17.77;16.05;;;26.10;99.90;;;;;;5108934;28;20119;-70
2022/08/23 08:39:17;;;;;;;17.92;16.10;;;26.30;99.90;;;;;;5089866;28;20054;-70
2022/08/23 08:41:52;;;;;;;17.05;15.55;;;26.40;99.90;;;;;;5108383;28;20051;-70
2022/08/23 08:44:28;;;;;;;17.35;15.63;;;26.50;99.90;;;;;;5108442;28;20049;-70
2022/08/23 08:46:56;;;;;;;18.15;16.23;;;26.70;99.70;;;;;;5090519;28;20063;-71
2022/08/23 08:49:41;;;;;;;20.05;16.27;;;26.50;99.90;;;;;;5105392;28;20823;-70
2022/08/23 08:52:23;;;;;;;19.55;17.48;;;26.30;95.80;;;;;;5090303;28;20070;-70
2022/08/23 08:54:59;;;;;;;17.40;15.80;;;26.00;99.90;;;;;;5088075;28;20153;-70
2022/08/23 08:57:25;;;;;;;17.77;16.08;;;25.80;99.90;;;;;;5074846;28;20051;-70
2022/08/23 08:59:50;;;;;;;18.15;14.60;;;25.90;99.90;;;;;;5086131;28;20063;-70
2022/08/23 09:02:19;;;;;;;14.98;13.68;;;26.30;99.90;;;;;;5086603;28;20052;-71
2022/08/23 09:04:45;;;;;;;15.82;14.52;;;26.60;99.90;;;;;;5086758;28;20039;-70
2022/08/23 09:07:46;;;;;;;15.35;14.00;;;26.70;98.80;;;;;;5084977;28;20074;-69
2022/08/23 09:10:24;;;;;;;14.73;13.35;;;26.80;96.10;;;;;;5079552;28;20047;-69
2022/08/23 09:13:10;;;;;;;14.90;13.30;;;27.00;90.40;;;;;;5087709;28;20513;-69
2022/08/23 09:15:54;;;;;;;13.73;12.57;;;27.00;90.40;;;;;;5087579;28;20102;-69
2022/08/23 09:18:22;;;;;;;13.75;12.45;;;27.20;87.20;;;;;;5085354;28;20044;-69
2022/08/23 09:20:52;;;;;;;14.93;13.40;;;27.50;91.20;;;;;;5085713;28;20052;-69
2022/08/23 09:23:26;;;;;;;13.77;12.57;;;27.50;79.50;;;;;;5086942;28;20040;-69
2022/08/23 09:25:56;;;;;;;15.35;13.43;;;27.50;74.60;;;;;;5086084;28;20917;-69
2022/08/23 09:28:22;;;;;;;17.27;9.55;;;27.60;79.60;;;;;;5083264;28;20043;-69
2022/08/23 09:30:54;;;;;;;13.95;12.45;;;27.80;79.00;;;;;;5067306;28;20111;-69
2022/08/23 09:33:26;;;;;;;11.80;10.70;;;28.00;75.70;;;;;;5085414;28;20479;-69
2022/08/23 09:36:24;;;;;;;13.63;11.70;;;28.10;74.10;;;;;;5081001;28;21070;-70
2022/08/23 09:39:06;;;;;;;12.18;10.98;;;28.20;68.50;;;;;;5059385;28;20048;-69
2022/08/23 09:41:40;;;;;;;20.92;13.48;;;28.50;69.90;;;;;;5087264;28;20047;-69
2022/08/23 09:44:15;;;;;;;13.77;11.77;;;28.40;69.90;;;;;;5078174;28;20500;-69
2022/08/23 09:46:41;;;;;;;11.68;10.25;;;28.30;71.00;;;;;;5072897;28;20529;-70
2022/08/23 09:49:24;;;;;;;13.77;11.82;;;28.50;71.00;;;;;;5079138;28;20048;-69
2022/08/23 09:51:52;;;;;;;15.70;12.48;;;28.60;65.50;;;;;;5085242;28;20088;-69
2022/08/23 09:54:19;;;;;;;18.33;12.25;;;28.70;67.00;;;;;;5087652;28;20058;-70
2022/08/23 09:56:56;;;;;;;25.10;14.15;;;28.50;66.90;;;;;;5076705;28;20382;-70
2022/08/23 09:59:30;;;;;;;;;;;28.60;67.90;;;;;;5075912;28;20389;-70
2022/08/23 10:01:58;;;;;;;15.30;11.73;;;28.60;65.70;;;;;;5087299;28;19963;-69
2022/08/23 10:04:36;;;;;;;13.65;10.80;;;28.70;66.70;;;;;;5086317;28;20048;-70
2022/08/23 10:07:22;;;;;;;11.73;9.95;;;28.70;66.40;;;;;;5087193;28;20311;-69
2022/08/23 10:09:47;;;;;;;13.48;11.70;;;28.90;66.40;;;;;;5087731;28;20098;-69
2022/08/23 10:12:13;;;;;;;11.27;10.18;;;28.90;66.40;;;;;;5087531;28;20397;-70
2022/08/23 10:14:38;;;;;;;11.52;10.35;;;29.00;65.40;;;;;;5087275;28;20040;-69
2022/08/23 10:17:22;;;;;;;12.48;10.65;;;29.00;65.10;;;;;;5086223;28;20176;-70
2022/08/23 10:20:04;;;;;;;17.13;12.70;;;29.10;64.70;;;;;;5084248;28;20046;-70
2022/08/23 10:22:42;;;;;;;13.43;11.20;;;29.20;65.50;;;;;;5086394;28;20130;-69
2022/08/23 10:25:38;;;;;;;15.70;11.68;;;29.20;62.20;;;;;;5085702;28;20044;-69
2022/08/23 10:31:10;;;;;;;15.55;9.57;;;29.20;58.50;;;;;;5066480;28;20052;-69
2022/08/23 10:34:12;;;;;;;20.67;12.98;;;29.30;58.60;;;;;;5083873;28;20503;-69
2022/08/23 10:37:33;;;;;;;12.18;10.98;;;29.20;56.40;;;;;;5072810;28;20639;-69
2022/08/23 10:40:13;;;;;;;16.02;11.35;;;29.20;59.00;;;;;;5065951;28;20061;-69
2022/08/23 10:43:04;;;;;;;12.40;10.93;;;29.30;59.40;;;;;;5087458;28;20428;-69
2022/08/23 10:45:37;;;;;;;14.45;11.95;;;29.40;60.10;;;;;;5090595;28;20079;-69
2022/08/23 10:48:18;;;;;;;15.18;11.50;;;29.50;57.90;;;;;;5076968;28;20084;-69
2022/08/23 10:51:04;;;;;;;13.18;10.88;;;29.50;57.40;;;;;;5075568;28;20115;-69
2022/08/23 10:53:45;;;;;;;12.25;11.00;;;29.30;57.50;;;;;;5088936;28;20684;-69
2022/08/23 10:56:18;;;;;;;12.52;9.90;;;29.30;58.20;;;;;;5075915;28;20074;-69
2022/08/23 10:58:55;;;;;;;10.48;9.50;;;29.30;56.90;;;;;;5095355;28;20058;-69
2022/08/23 11:01:38;;;;;;;11.43;10.25;;;29.30;56.00;;;;;;5092111;28;20484;-70
2022/08/23 11:04:08;;;;;;;17.98;11.50;;;29.40;56.00;;;;;;5110450;28;20039;-69
2022/08/23 11:06:34;;;;;;;16.20;13.25;;;29.50;57.60;;;;;;5078821;28;20047;-69
2022/08/23 11:09:06;;;;;;;12.82;10.43;;;29.50;57.70;;;;;;5111038;28;20039;-70
2022/08/23 11:11:40;;;;;;;22.35;11.02;;;29.60;56.80;;;;;;5110786;28;20381;-69
2022/08/23 11:14:31;;;;;;;16.02;12.27;;;29.60;55.30;;;;;;5109773;27;20566;-69
2022/08/23 11:17:00;;;;;;;16.15;11.02;;;29.80;56.20;;;;;;5056028;28;20541;-70
2022/08/23 11:19:48;;;;;;;11.60;10.45;;;29.90;56.70;;;;;;5108862;28;20056;-69
2022/08/23 11:22:19;;;;;;;10.95;9.85;;;30.10;55.90;;;;;;5110363;28;20040;-69
2022/08/23 11:25:00;;;;;;;13.73;11.65;;;30.10;56.00;;;;;;5110201;28;20043;-69
2022/08/23 11:27:41;;;;;;;14.73;10.27;;;30.20;55.60;;;;;;5108828;28;20058;-69
2022/08/23 11:30:31;;;;;;;14.18;12.32;;;30.30;54.80;;;;;;5099050;28;20032;-69
2022/08/23 11:33:19;;;;;;;16.75;11.63;;;30.20;52.90;;;;;;5106356;28;20040;-70
2022/08/23 11:36:15;;;;;;;11.10;10.18;;;30.20;55.10;;;;;;5080261;28;20052;-69
2022/08/23 11:38:47;;;;;;;12.30;11.07;;;30.20;54.10;;;;;;5086759;28;20059;-69
2022/08/23 11:41:18;;;;;;;12.57;11.13;;;30.10;52.90;;;;;;5109162;28;20142;-69
2022/08/23 11:43:47;;;;;;;10.63;9.55;;;30.20;53.40;;;;;;5109443;28;20040;-70
2022/08/23 11:46:25;;;;;;;11.30;10.00;;;30.20;53.00;;;;;;5099531;28;20043;-70
2022/08/23 11:49:15;;;;;;;14.68;11.65;;;30.20;52.90;;;;;;5090849;28;20227;-71
2022/08/23 11:52:14;;;;;;;12.75;9.85;;;30.30;52.70;;;;;;5109911;28;20036;-68
2022/08/23 11:55:04;;;;;;;11.77;9.80;;;30.30;52.30;;;;;;5098187;28;20028;-68
2022/08/23 11:57:51;;;;;;;10.10;9.15;;;30.40;51.20;;;;;;5104948;27;20043;-68
2022/08/23 12:00:25;;;;;;;11.40;10.35;;;30.30;51.40;;;;;;5082597;28;20083;-68
2022/08/23 12:03:19;;;;;;;11.75;8.57;;;30.30;51.40;;;;;;5079613;28;20071;-67
2022/08/23 12:05:51;;;;;;;10.73;9.65;;;30.50;51.30;;;;;;5090655;28;20870;-69
2022/08/23 12:08:21;;;;;;;12.38;9.77;;;30.50;50.90;;;;;;5077750;28;20040;-68
2022/08/23 12:10:47;;;;;;;12.30;9.35;;;30.50;51.00;;;;;;5080845;28;20048;-68
2022/08/23 12:13:20;;;;;;;13.68;10.10;;;30.70;51.60;;;;;;5109118;28;20480;-69
2022/08/23 12:16:18;;;;;;;9.60;8.63;;;30.80;51.20;;;;;;5089874;28;20142;-68
2022/08/23 12:18:52;;;;;;;10.63;8.25;;;30.80;50.70;;;;;;5091481;28;20453;-67
2022/08/23 12:21:35;;;;;;;13.02;8.80;;;30.80;50.70;;;;;;5085109;28;20047;-68
2022/08/23 12:24:14;;;;;;;9.40;8.55;;;30.70;49.50;;;;;;5095078;28;20088;-67
2022/08/23 12:26:58;;;;;;;11.18;8.98;;;30.70;49.80;;;;;;5085699;28;20492;-68
2022/08/23 12:29:45;;;;;;;10.10;9.05;;;30.70;49.00;;;;;;5097314;28;20131;-68
2022/08/23 12:32:32;;;;;;;11.93;8.13;;;30.60;50.10;;;;;;5109048;28;20078;-68
2022/08/23 12:35:09;;;;;;;10.90;9.93;;;30.70;50.90;;;;;;5102934;28;20056;-68
2022/08/23 12:37:38;;;;;;;10.90;9.63;;;30.60;50.10;;;;;;5084913;28;20396;-68
2022/08/23 12:40:10;;;;;;;12.00;10.20;;;30.50;50.60;;;;;;5082364;28;20143;-68
2022/08/23 12:42:38;;;;;;;10.13;8.75;;;30.50;51.40;;;;;;5102150;28;20040;-68
2022/08/23 12:45:18;;;;;;;10.60;9.27;;;30.40;51.30;;;;;;5089560;28;20043;-68
2022/08/23 12:47:58;;;;;;;14.10;9.73;;;30.50;51.30;;;;;;5102094;28;20493;-68
2022/08/23 12:50:29;;;;;;;10.55;8.55;;;30.60;51.40;;;;;;5090527;28;20487;-68
2022/08/23 12:53:05;;;;;;;12.60;10.20;;;30.50;51.60;;;;;;5090564;28;20058;-68
2022/08/23 12:55:35;;;;;;;11.38;10.35;;;30.40;50.60;;;;;;5090482;28;20426;-68
2022/08/23 12:58:03;;;;;;;14.32;10.32;;;30.20;50.10;;;;;;5094386;28;20048;-68
2022/08/23 13:00:37;;;;;;;11.27;10.20;;;30.40;50.60;;;;;;5107708;28;20512;-68